Time;durP1;ratioP1;P1;durP2;ratioP2;P2;SDS_P1;SDS_P2;PMS_P1;PMS_P2;Temp;Humidity;BMP_temperature;BMP_pressure;BME280_temperature;BME280_humidity;BME280_pressure;Samples;Min_cycle;Max_cycle;Signal;HPM_P1;HPM_P2
2023/05/13 00:01:21;;;;;;;5.47;3.17;;;16.80;98.80;;;;;;5079653;28;20554;-35
2023/05/13 00:03:47;;;;;;;3.25;2.90;;;16.80;98.80;;;;;;5080470;28;20799;-36
2023/05/13 00:06:13;;;;;;;5.20;3.22;;;16.70;98.70;;;;;;5081311;28;20406;-35
2023/05/13 00:08:38;;;;;;;3.42;2.90;;;16.70;98.60;;;;;;5082345;28;20012;-34
2023/05/13 00:11:04;;;;;;;3.33;3.03;;;16.70;98.60;;;;;;5082400;28;20852;-34
2023/05/13 00:13:30;;;;;;;4.50;3.05;;;16.60;98.60;;;;;;5081799;28;20816;-35
2023/05/13 00:15:56;;;;;;;3.70;3.25;;;16.60;98.70;;;;;;5083101;28;20077;-35
2023/05/13 00:18:21;;;;;;;3.03;2.80;;;16.50;98.50;;;;;;5082646;28;20392;-36
2023/05/13 00:20:47;;;;;;;4.93;3.03;;;16.50;98.60;;;;;;5082911;28;20562;-35
2023/05/13 00:23:13;;;;;;;3.60;3.30;;;16.40;98.60;;;;;;5084101;28;20040;-37
2023/05/13 00:25:40;;;;;;;3.40;3.10;;;16.40;98.60;;;;;;5083955;28;20027;-36
2023/05/13 00:28:05;;;;;;;2.85;2.63;;;16.40;98.60;;;;;;5084129;28;20114;-34
2023/05/13 00:30:31;;;;;;;5.35;3.60;;;16.30;98.50;;;;;;5083409;28;20062;-34
2023/05/13 00:32:57;;;;;;;4.65;3.33;;;16.30;98.40;;;;;;5084654;28;20024;-34
2023/05/13 00:35:23;;;;;;;3.00;2.70;;;16.20;98.40;;;;;;5083427;28;20037;-35
2023/05/13 00:37:48;;;;;;;3.28;2.97;;;16.20;98.50;;;;;;5083855;28;20680;-36
2023/05/13 00:40:22;;;;;;;3.47;3.03;;;16.20;98.60;;;;;;5084213;28;20032;-36
2023/05/13 00:42:48;;;;;;;5.15;2.70;;;16.10;98.50;;;;;;5083941;28;20046;-34
2023/05/13 00:45:14;;;;;;;3.85;3.10;;;16.10;98.60;;;;;;5083634;28;20476;-35
2023/05/13 00:47:41;;;;;;;3.20;2.90;;;16.10;98.80;;;;;;5083415;28;20034;-34
2023/05/13 00:50:09;;;;;;;4.40;3.00;;;16.10;98.60;;;;;;5083134;28;20543;-35
2023/05/13 00:52:37;;;;;;;5.18;3.22;;;16.00;98.60;;;;;;5083677;28;20047;-35
2023/05/13 00:55:03;;;;;;;6.28;3.05;;;16.00;98.60;;;;;;5084120;28;20144;-36
2023/05/13 00:57:29;;;;;;;6.30;3.22;;;16.00;98.70;;;;;;5082471;28;20161;-35
2023/05/13 00:59:55;;;;;;;3.55;3.08;;;16.00;98.70;;;;;;5083961;28;20073;-33
2023/05/13 01:02:48;;;;;;;4.20;3.22;;;16.00;98.70;;;;;;5082888;28;20068;-35
2023/05/13 01:05:13;;;;;;;;;;;15.90;98.80;;;;;;5084205;28;20035;-36
2023/05/13 01:08:06;;;;;;;3.78;2.88;;;15.90;98.70;;;;;;5083646;28;19907;-33
2023/05/13 01:10:34;;;;;;;3.75;3.25;;;15.80;98.70;;;;;;5082018;28;20032;-34
2023/05/13 01:13:07;;;;;;;3.80;3.20;;;15.80;98.80;;;;;;5081855;28;20473;-34
2023/05/13 01:15:34;;;;;;;4.15;3.60;;;15.80;98.80;;;;;;5082518;28;20023;-35
2023/05/13 01:18:09;;;;;;;3.63;3.20;;;15.80;98.80;;;;;;5082456;28;20036;-36
2023/05/13 01:20:41;;;;;;;7.70;3.53;;;15.80;98.90;;;;;;5082404;28;20031;-35
2023/05/13 01:23:07;;;;;;;3.13;2.83;;;15.70;98.80;;;;;;5071853;28;20024;-34
2023/05/13 01:25:32;;;;;;;3.80;3.30;;;15.70;98.80;;;;;;5081592;28;20024;-34
2023/05/13 01:27:58;;;;;;;4.30;3.05;;;15.70;99.10;;;;;;5083210;28;20034;-35
2023/05/13 01:30:24;;;;;;;3.47;2.90;;;15.70;98.90;;;;;;5082060;28;20086;-35
2023/05/13 01:32:55;;;;;;;4.20;2.65;;;15.70;98.90;;;;;;5082658;28;20440;-35
2023/05/13 01:35:23;;;;;;;3.20;2.90;;;15.70;99.00;;;;;;5083697;28;20035;-34
2023/05/13 01:37:49;;;;;;;2.80;2.60;;;15.60;99.10;;;;;;5081887;28;20036;-36
2023/05/13 01:40:15;;;;;;;4.47;3.45;;;15.60;99.10;;;;;;5083566;28;20020;-35
2023/05/13 01:42:41;;;;;;;3.58;2.90;;;15.60;99.20;;;;;;5082359;28;20035;-36
2023/05/13 01:45:07;;;;;;;3.22;2.70;;;15.50;99.20;;;;;;5082268;28;20025;-35
2023/05/13 01:47:33;;;;;;;4.65;3.03;;;15.50;99.20;;;;;;5082891;28;20491;-34
2023/05/13 01:49:58;;;;;;;6.07;2.72;;;15.50;99.30;;;;;;5083282;28;20020;-34
2023/05/13 01:52:24;;;;;;;3.17;2.88;;;15.40;99.40;;;;;;5081535;28;20364;-34
2023/05/13 01:54:50;;;;;;;3.60;3.20;;;15.40;99.50;;;;;;5083170;28;20061;-35
2023/05/13 01:57:15;;;;;;;3.45;3.08;;;15.30;99.50;;;;;;5083157;28;20028;-34
2023/05/13 01:59:41;;;;;;;7.25;3.20;;;15.30;99.60;;;;;;5081685;28;20483;-35
2023/05/13 02:02:06;;;;;;;4.38;3.53;;;15.30;99.70;;;;;;5083045;28;20039;-35
2023/05/13 02:04:32;;;;;;;4.82;3.42;;;15.20;99.70;;;;;;5082315;28;20020;-34
2023/05/13 02:06:58;;;;;;;3.90;3.20;;;15.20;99.80;;;;;;5081642;28;20042;-35
2023/05/13 02:09:23;;;;;;;3.15;2.85;;;15.20;99.90;;;;;;5081561;28;20785;-35
2023/05/13 02:11:55;;;;;;;4.38;2.60;;;15.10;99.90;;;;;;5082058;28;20766;-34
2023/05/13 02:14:23;;;;;;;5.55;2.63;;;15.10;99.90;;;;;;5081275;28;20024;-34
2023/05/13 02:16:49;;;;;;;6.47;3.25;;;15.00;99.90;;;;;;5082140;28;20085;-35
2023/05/13 02:19:14;;;;;;;3.75;3.13;;;15.00;99.90;;;;;;5081723;28;20023;-35
2023/05/13 02:21:42;;;;;;;3.05;2.60;;;14.90;99.90;;;;;;5080901;28;20125;-35
2023/05/13 02:24:07;;;;;;;5.40;3.08;;;14.90;99.90;;;;;;5081660;28;20024;-35
2023/05/13 02:26:33;;;;;;;3.63;3.08;;;14.90;99.90;;;;;;5081383;28;20028;-35
2023/05/13 02:28:58;;;;;;;3.60;3.00;;;14.80;99.90;;;;;;5081093;28;20024;-34
2023/05/13 02:31:24;;;;;;;3.25;2.95;;;14.80;99.90;;;;;;5082147;28;20459;-34
2023/05/13 02:33:50;;;;;;;3.53;3.10;;;14.70;99.90;;;;;;5081580;28;20012;-35
2023/05/13 02:36:35;;;;;;;6.05;3.10;;;14.80;99.90;;;;;;5083001;28;20043;-36
2023/05/13 02:39:01;;;;;;;4.80;3.30;;;14.70;99.90;;;;;;5082104;28;20065;-35
2023/05/13 02:41:27;;;;;;;3.75;3.33;;;14.60;99.90;;;;;;5081342;28;20028;-35
2023/05/13 02:43:53;;;;;;;4.07;3.63;;;14.60;99.90;;;;;;5082322;28;20489;-35
2023/05/13 02:46:18;;;;;;;4.80;3.55;;;14.60;99.90;;;;;;5082145;28;20028;-36
2023/05/13 02:48:44;;;;;;;3.42;3.13;;;14.60;99.90;;;;;;5081104;28;20023;-35
2023/05/13 02:51:09;;;;;;;3.33;3.03;;;14.50;99.90;;;;;;5082250;28;20024;-34
2023/05/13 02:53:35;;;;;;;4.40;3.40;;;14.50;99.90;;;;;;5080609;28;20036;-34
2023/05/13 02:56:00;;;;;;;3.67;3.38;;;14.40;99.90;;;;;;5080686;28;20027;-35
2023/05/13 02:58:26;;;;;;;5.90;3.35;;;14.40;99.90;;;;;;5081671;28;20143;-35
2023/05/13 03:00:51;;;;;;;3.90;3.50;;;14.30;99.90;;;;;;5080632;28;20040;-35
2023/05/13 03:03:17;;;;;;;5.50;3.50;;;14.30;99.90;;;;;;5080757;28;20387;-33
2023/05/13 03:05:42;;;;;;;3.95;3.65;;;14.20;99.90;;;;;;5081165;28;20070;-34
2023/05/13 03:08:08;;;;;;;4.60;3.38;;;14.20;99.90;;;;;;5081618;28;20835;-36
2023/05/13 03:10:34;;;;;;;3.90;3.42;;;14.20;99.90;;;;;;5080255;28;20480;-34
2023/05/13 03:13:00;;;;;;;4.78;3.70;;;14.10;99.90;;;;;;5081839;28;20528;-35
2023/05/13 03:15:25;;;;;;;4.88;3.83;;;14.10;99.90;;;;;;5080954;28;20020;-35
2023/05/13 03:17:51;;;;;;;4.22;3.83;;;14.00;99.90;;;;;;5080891;28;20046;-34
2023/05/13 03:20:17;;;;;;;5.38;4.38;;;14.00;99.90;;;;;;5081115;28;20121;-34
2023/05/13 03:22:43;;;;;;;4.78;4.30;;;13.90;99.90;;;;;;5081489;28;20395;-35
2023/05/13 03:25:08;;;;;;;5.57;4.07;;;13.90;99.90;;;;;;5080572;28;20020;-35
2023/05/13 03:27:34;;;;;;;5.20;4.10;;;13.90;99.90;;;;;;5079999;28;20471;-34
2023/05/13 03:29:59;;;;;;;5.05;4.40;;;13.90;99.90;;;;;;5080025;28;20463;-35
2023/05/13 03:32:29;;;;;;;6.00;4.40;;;13.90;99.90;;;;;;5080142;28;20028;-34
2023/05/13 03:34:59;;;;;;;9.90;4.32;;;13.90;99.90;;;;;;5080654;28;20107;-34
2023/05/13 03:37:25;;;;;;;5.18;4.30;;;13.90;99.90;;;;;;5079490;28;20044;-35
2023/05/13 03:39:51;;;;;;;5.35;4.35;;;13.80;99.90;;;;;;5082071;28;20028;-34
2023/05/13 03:42:16;;;;;;;5.25;4.68;;;13.80;99.90;;;;;;5085731;28;20028;-34
2023/05/13 03:44:42;;;;;;;4.75;4.35;;;13.70;99.90;;;;;;5084885;28;20302;-34
2023/05/13 03:47:08;;;;;;;10.32;4.88;;;13.60;99.90;;;;;;5085524;28;20052;-33
2023/05/13 03:49:33;;;;;;;5.53;4.28;;;13.60;99.90;;;;;;5084059;28;20120;-35
2023/05/13 03:51:59;;;;;;;4.40;4.03;;;13.60;99.90;;;;;;5084273;28;20111;-36
2023/05/13 03:54:24;;;;;;;5.05;4.55;;;13.60;99.90;;;;;;5083911;28;20655;-35
2023/05/13 03:56:56;;;;;;;5.32;4.82;;;13.50;99.90;;;;;;5084375;28;20071;-34
2023/05/13 03:59:22;;;;;;;5.65;4.63;;;13.60;99.90;;;;;;5083526;28;20020;-35
2023/05/13 04:01:48;;;;;;;5.05;4.55;;;13.60;99.90;;;;;;5084375;28;20024;-34
2023/05/13 04:04:16;;;;;;;6.50;4.70;;;13.60;99.90;;;;;;5084771;28;20029;-35
2023/05/13 04:06:42;;;;;;;6.03;4.82;;;13.50;99.90;;;;;;5083868;28;20386;-34
2023/05/13 04:09:08;;;;;;;6.15;4.93;;;13.50;99.90;;;;;;5084450;28;20027;-34
2023/05/13 04:11:33;;;;;;;6.80;5.05;;;13.50;99.90;;;;;;5084040;28;20024;-34
2023/05/13 04:13:59;;;;;;;5.50;4.55;;;13.50;99.90;;;;;;5084262;28;20027;-35
2023/05/13 04:16:24;;;;;;;6.15;5.13;;;13.50;99.90;;;;;;5083583;28;20067;-35
2023/05/13 04:18:50;;;;;;;5.55;5.05;;;13.50;99.90;;;;;;5084715;28;20526;-34
2023/05/13 04:21:16;;;;;;;5.80;4.82;;;13.50;99.90;;;;;;5084382;28;20035;-33
2023/05/13 04:23:41;;;;;;;8.07;5.47;;;13.40;99.90;;;;;;5080000;28;20681;-34
2023/05/13 04:26:07;;;;;;;5.35;4.65;;;13.40;99.90;;;;;;5084994;28;20035;-34
2023/05/13 04:28:33;;;;;;;5.40;4.70;;;13.40;99.90;;;;;;5083052;28;20145;-35
2023/05/13 04:30:59;;;;;;;7.05;5.20;;;13.40;99.90;;;;;;5084506;28;20024;-34
2023/05/13 04:33:25;;;;;;;5.50;5.00;;;13.40;99.90;;;;;;5083370;28;20479;-36
2023/05/13 04:35:53;;;;;;;5.70;5.13;;;13.40;99.90;;;;;;5063751;28;20028;-36
2023/05/13 04:38:19;;;;;;;4.97;4.47;;;13.40;99.90;;;;;;5077805;28;20123;-35
2023/05/13 04:40:46;;;;;;;5.75;5.07;;;13.40;99.90;;;;;;5082722;28;20038;-35
2023/05/13 04:43:11;;;;;;;6.18;5.57;;;13.30;99.90;;;;;;5083326;28;20032;-34
2023/05/13 04:45:38;;;;;;;6.65;4.72;;;13.40;99.90;;;;;;5083021;28;20031;-35
2023/05/13 04:48:06;;;;;;;9.18;5.18;;;13.30;99.90;;;;;;5083096;28;20024;-35
2023/05/13 04:50:32;;;;;;;6.65;5.40;;;13.30;99.90;;;;;;5081578;28;20043;-36
2023/05/13 04:52:57;;;;;;;6.00;5.40;;;13.30;99.90;;;;;;5083324;28;20047;-36
2023/05/13 04:55:23;;;;;;;7.68;4.97;;;13.30;99.90;;;;;;5082967;28;20028;-34
2023/05/13 04:57:49;;;;;;;5.50;5.00;;;13.30;99.90;;;;;;5083729;28;20035;-35
2023/05/13 05:00:15;;;;;;;5.43;4.93;;;13.30;99.90;;;;;;5083858;28;20047;-35
2023/05/13 05:02:43;;;;;;;4.90;4.50;;;13.30;99.90;;;;;;5082922;28;20097;-35
2023/05/13 05:05:09;;;;;;;6.85;4.90;;;13.30;99.90;;;;;;5084107;28;20020;-35
2023/05/13 05:07:39;;;;;;;5.88;5.38;;;13.20;99.90;;;;;;5083947;28;20032;-35
2023/05/13 05:10:06;;;;;;;6.32;5.40;;;13.20;99.90;;;;;;5083898;28;20070;-35
2023/05/13 05:12:31;;;;;;;7.20;5.97;;;13.20;99.90;;;;;;5083312;28;20103;-34
2023/05/13 05:14:57;;;;;;;6.35;5.50;;;13.20;99.90;;;;;;5083320;28;20046;-35
2023/05/13 05:17:22;;;;;;;5.60;5.10;;;13.20;99.90;;;;;;5082514;28;20039;-35
2023/05/13 05:19:48;;;;;;;6.75;5.68;;;13.20;99.90;;;;;;5083364;28;20050;-34
2023/05/13 05:22:16;;;;;;;6.50;5.57;;;13.20;99.90;;;;;;5083538;28;20032;-35
2023/05/13 05:24:48;;;;;;;5.68;5.07;;;13.20;99.90;;;;;;5082650;28;20012;-34
2023/05/13 05:27:13;;;;;;;7.40;6.00;;;13.20;99.90;;;;;;5082689;28;20074;-36
2023/05/13 05:29:39;;;;;;;6.20;5.47;;;13.20;99.90;;;;;;5080463;28;20142;-33
2023/05/13 05:32:05;;;;;;;7.20;5.60;;;13.30;99.90;;;;;;5083181;28;20110;-34
2023/05/13 05:34:30;;;;;;;7.90;5.43;;;13.30;99.90;;;;;;5082441;28;20475;-35
2023/05/13 05:36:56;;;;;;;6.00;5.50;;;13.30;99.90;;;;;;5082033;28;20032;-36
2023/05/13 05:39:21;;;;;;;7.57;5.95;;;13.40;99.90;;;;;;5082339;28;20012;-34
2023/05/13 05:41:47;;;;;;;7.30;6.35;;;13.50;99.90;;;;;;5082887;28;20086;-33
2023/05/13 05:44:13;;;;;;;7.28;6.13;;;13.50;99.90;;;;;;5081029;28;20024;-35
2023/05/13 05:46:38;;;;;;;5.72;5.13;;;13.60;99.90;;;;;;5081123;28;20028;-35
2023/05/13 05:49:04;;;;;;;6.55;5.80;;;13.70;99.90;;;;;;5082218;28;20024;-35
2023/05/13 05:51:29;;;;;;;5.95;5.40;;;13.80;99.90;;;;;;5080539;28;20042;-35
2023/05/13 05:53:55;;;;;;;6.97;5.22;;;13.80;99.90;;;;;;5082128;28;20130;-35
2023/05/13 05:56:20;;;;;;;5.68;5.10;;;13.80;99.90;;;;;;5082424;28;20028;-35
2023/05/13 05:58:47;;;;;;;7.97;5.68;;;13.80;99.90;;;;;;5081206;28;20568;-35
2023/05/13 06:01:13;;;;;;;7.35;5.63;;;13.80;99.90;;;;;;5082416;28;20102;-34
2023/05/13 06:03:38;;;;;;;6.63;5.90;;;13.80;99.90;;;;;;5081078;28;20024;-34
2023/05/13 06:06:04;;;;;;;6.47;5.30;;;13.90;99.90;;;;;;5081763;28;20600;-35
2023/05/13 06:08:29;;;;;;;8.30;5.00;;;13.90;99.90;;;;;;5082539;28;20032;-34
2023/05/13 06:10:58;;;;;;;6.22;5.40;;;14.00;99.90;;;;;;5081672;28;20032;-35
2023/05/13 06:13:27;;;;;;;5.70;5.20;;;14.10;99.90;;;;;;5080993;28;20032;-34
2023/05/13 06:15:52;;;;;;;6.28;5.43;;;14.20;99.90;;;;;;5082241;28;20032;-35
2023/05/13 06:18:18;;;;;;;5.72;5.13;;;14.20;99.90;;;;;;5082298;28;20032;-34
2023/05/13 06:20:43;;;;;;;5.43;4.93;;;14.30;99.90;;;;;;5081059;28;20628;-35
2023/05/13 06:23:09;;;;;;;6.13;5.00;;;14.40;99.90;;;;;;5081808;28;20032;-34
2023/05/13 06:25:35;;;;;;;5.88;4.90;;;14.40;99.90;;;;;;5081628;28;20065;-34
2023/05/13 06:28:01;;;;;;;5.85;5.25;;;14.50;99.90;;;;;;5081328;28;20024;-34
2023/05/13 06:30:26;;;;;;;6.60;5.68;;;14.50;99.90;;;;;;5081845;28;20040;-34
2023/05/13 06:32:53;;;;;;;5.88;5.20;;;14.50;99.90;;;;;;5080925;28;20108;-35
2023/05/13 06:35:19;;;;;;;6.22;5.60;;;14.60;99.90;;;;;;5082967;28;20032;-34
2023/05/13 06:37:45;;;;;;;5.45;4.85;;;14.60;99.90;;;;;;5081745;28;20120;-34
2023/05/13 06:40:11;;;;;;;6.40;5.00;;;14.60;99.90;;;;;;5081993;28;20554;-34
2023/05/13 06:42:40;;;;;;;5.43;4.85;;;14.60;99.90;;;;;;5081935;28;20476;-35
2023/05/13 06:45:07;;;;;;;9.18;5.93;;;14.70;99.90;;;;;;5082266;28;20571;-34
2023/05/13 06:47:32;;;;;;;6.93;5.18;;;14.80;99.90;;;;;;5080756;28;20056;-35
2023/05/13 06:49:58;;;;;;;6.88;5.07;;;14.80;99.90;;;;;;5081838;28;20012;-34
2023/05/13 06:52:23;;;;;;;5.57;4.30;;;14.90;99.90;;;;;;5080335;28;20028;-35
2023/05/13 06:54:49;;;;;;;5.82;4.85;;;15.00;99.90;;;;;;5081172;28;20024;-35
2023/05/13 06:57:15;;;;;;;5.55;5.00;;;15.10;99.90;;;;;;5080114;28;20132;-35
2023/05/13 06:59:40;;;;;;;5.25;4.75;;;15.20;99.90;;;;;;5080472;28;20028;-34
2023/05/13 07:02:08;;;;;;;6.68;5.45;;;15.20;99.90;;;;;;5080436;28;20041;-34
2023/05/13 07:04:34;;;;;;;5.78;4.93;;;15.20;99.90;;;;;;5080457;28;20078;-35
2023/05/13 07:06:59;;;;;;;5.43;4.60;;;15.30;99.90;;;;;;5080898;28;20119;-35
2023/05/13 07:09:27;;;;;;;8.25;5.35;;;15.40;99.90;;;;;;5080406;28;20017;-34
2023/05/13 07:11:53;;;;;;;6.68;4.60;;;15.50;99.90;;;;;;5081183;28;20111;-34
2023/05/13 07:14:19;;;;;;;6.35;4.82;;;15.60;99.90;;;;;;5081874;28;20382;-35
2023/05/13 07:16:44;;;;;;;4.57;4.05;;;15.60;99.90;;;;;;5084980;28;20023;-35
2023/05/13 07:19:10;;;;;;;5.63;4.93;;;15.70;99.90;;;;;;5085797;28;20036;-35
2023/05/13 07:21:35;;;;;;;6.80;4.40;;;15.70;99.90;;;;;;5085220;28;20024;-34
2023/05/13 07:24:03;;;;;;;6.53;4.35;;;15.70;99.90;;;;;;5085262;28;20023;-35
2023/05/13 07:26:29;;;;;;;4.43;4.03;;;15.70;99.90;;;;;;5085343;28;20383;-34
2023/05/13 07:29:05;;;;;;;5.28;4.70;;;15.80;99.90;;;;;;5085654;28;20035;-35
2023/05/13 07:31:30;;;;;;;4.70;4.30;;;15.80;99.90;;;;;;5085194;28;20027;-35
2023/05/13 07:33:56;;;;;;;5.07;4.60;;;15.80;99.90;;;;;;5085605;28;20669;-34
2023/05/13 07:36:22;;;;;;;4.90;4.28;;;15.90;99.90;;;;;;5084672;28;20065;-35
2023/05/13 07:38:47;;;;;;;5.07;4.50;;;16.00;99.90;;;;;;5085050;28;20020;-35
2023/05/13 07:41:13;;;;;;;4.47;4.07;;;16.10;99.90;;;;;;5084984;28;20024;-35
2023/05/13 07:43:39;;;;;;;5.13;4.32;;;16.20;99.90;;;;;;5084113;28;20040;-35
2023/05/13 07:46:05;;;;;;;4.55;4.15;;;16.20;99.90;;;;;;5084733;28;20550;-34
2023/05/13 07:48:30;;;;;;;4.82;4.20;;;16.30;99.90;;;;;;5084195;28;20046;-35
2023/05/13 07:50:57;;;;;;;4.20;3.80;;;16.30;99.90;;;;;;5084644;28;20058;-35
2023/05/13 07:53:22;;;;;;;4.65;3.80;;;16.40;99.90;;;;;;5083931;28;20566;-34
2023/05/13 07:55:48;;;;;;;4.00;3.45;;;16.50;99.90;;;;;;5084757;28;20038;-34
2023/05/13 07:58:13;;;;;;;5.07;3.80;;;16.60;99.90;;;;;;5084214;28;20051;-35
2023/05/13 08:00:39;;;;;;;4.10;3.70;;;16.70;99.90;;;;;;5084118;28;20020;-36
2023/05/13 08:03:04;;;;;;;4.57;3.70;;;16.80;99.90;;;;;;5084231;28;20477;-36
2023/05/13 08:05:30;;;;;;;4.13;3.53;;;16.90;99.90;;;;;;5083189;28;20554;-35
2023/05/13 08:07:55;;;;;;;5.05;3.72;;;17.00;99.90;;;;;;5084644;28;20030;-35
2023/05/13 08:10:21;;;;;;;5.50;3.78;;;17.10;99.90;;;;;;5084035;28;20035;-36
2023/05/13 08:12:51;;;;;;;5.50;3.90;;;17.20;99.90;;;;;;5084433;28;20032;-33
2023/05/13 08:15:26;;;;;;;4.68;4.10;;;17.30;99.90;;;;;;5084768;28;20581;-35
2023/05/13 08:17:53;;;;;;;5.45;3.70;;;17.40;99.90;;;;;;5084999;28;20036;-35
2023/05/13 08:20:19;;;;;;;5.45;3.63;;;17.50;99.90;;;;;;5083284;28;20811;-35
2023/05/13 08:22:45;;;;;;;4.60;3.20;;;17.60;99.90;;;;;;5085153;28;20024;-34
2023/05/13 08:25:11;;;;;;;3.63;3.33;;;17.70;99.90;;;;;;5084172;28;20020;-35
2023/05/13 08:27:36;;;;;;;4.70;3.13;;;17.70;99.90;;;;;;5083129;28;20059;-36
2023/05/13 08:30:03;;;;;;;3.88;3.22;;;17.80;99.90;;;;;;5085103;28;20115;-35
2023/05/13 08:32:29;;;;;;;3.20;2.90;;;17.90;99.90;;;;;;5083639;28;20032;-35
2023/05/13 08:34:58;;;;;;;3.85;3.10;;;17.90;99.90;;;;;;5084299;28;20040;-36
2023/05/13 08:37:23;;;;;;;3.10;2.80;;;18.00;99.90;;;;;;5084118;28;20122;-35
2023/05/13 08:39:49;;;;;;;4.07;3.60;;;18.10;99.90;;;;;;5084315;28;20455;-34
2023/05/13 08:42:20;;;;;;;3.38;3.08;;;18.10;99.80;;;;;;5084661;28;20016;-35
2023/05/13 08:44:46;;;;;;;5.88;3.50;;;18.20;99.60;;;;;;5084036;28;20039;-36
2023/05/13 08:47:27;;;;;;;3.33;2.83;;;18.30;99.00;;;;;;5083210;28;20039;-34
2023/05/13 08:49:54;;;;;;;3.30;3.00;;;18.40;99.00;;;;;;5084993;28;20024;-35
2023/05/13 08:52:21;;;;;;;3.47;3.03;;;18.50;98.90;;;;;;5083280;28;20534;-35
2023/05/13 08:54:47;;;;;;;3.92;2.92;;;18.60;99.00;;;;;;5082806;28;20596;-36
2023/05/13 08:57:13;;;;;;;4.43;2.80;;;18.60;98.70;;;;;;5084174;28;20040;-37
2023/05/13 08:59:38;;;;;;;3.15;2.65;;;18.70;98.40;;;;;;5083328;28;20024;-36
2023/05/13 09:02:04;;;;;;;2.80;2.60;;;18.70;98.20;;;;;;5082895;28;20613;-34
2023/05/13 09:04:31;;;;;;;3.08;2.60;;;18.80;98.00;;;;;;5083833;28;20127;-33
2023/05/13 09:07:00;;;;;;;3.38;2.65;;;18.90;96.90;;;;;;5083537;28;20017;-39
2023/05/13 09:09:26;;;;;;;2.65;2.42;;;19.00;96.60;;;;;;5082271;28;20073;-35
2023/05/13 09:11:52;;;;;;;4.30;2.80;;;19.10;96.50;;;;;;5083564;28;20031;-36
2023/05/13 09:14:18;;;;;;;2.72;2.53;;;19.10;96.00;;;;;;5082346;28;20028;-36
2023/05/13 09:16:44;;;;;;;3.00;2.70;;;19.20;95.60;;;;;;5081931;28;20032;-35
2023/05/13 09:19:10;;;;;;;5.18;2.95;;;19.30;95.50;;;;;;5083131;28;20042;-35
2023/05/13 09:21:38;;;;;;;4.90;2.97;;;19.40;95.50;;;;;;5082689;28;20560;-34
2023/05/13 09:24:16;;;;;;;6.90;2.70;;;19.50;95.00;;;;;;5082762;28;20556;-35
2023/05/13 09:26:42;;;;;;;2.50;2.30;;;19.50;94.50;;;;;;5082636;28;20484;-34
2023/05/13 09:29:21;;;;;;;4.70;2.50;;;19.60;94.50;;;;;;5082334;28;20503;-36
2023/05/13 09:31:58;;;;;;;2.80;2.55;;;19.60;94.20;;;;;;5083185;28;20131;-36
2023/05/13 09:34:39;;;;;;;3.05;2.50;;;19.70;93.80;;;;;;5083228;28;20031;-36
2023/05/13 09:37:06;;;;;;;2.50;2.30;;;19.70;93.40;;;;;;5082068;28;20075;-34
2023/05/13 09:39:38;;;;;;;3.97;2.40;;;19.80;92.70;;;;;;5082489;28;20020;-36
2023/05/13 09:42:03;;;;;;;2.92;2.63;;;19.90;92.20;;;;;;5083591;28;20145;-35
2023/05/13 09:44:29;;;;;;;3.17;2.60;;;20.00;92.20;;;;;;5081888;28;20352;-37
2023/05/13 09:46:55;;;;;;;4.60;2.53;;;20.10;91.70;;;;;;5081964;28;20474;-36
2023/05/13 09:49:26;;;;;;;3.88;2.75;;;20.10;91.60;;;;;;5082315;28;20376;-35
2023/05/13 09:51:51;;;;;;;3.40;2.60;;;20.20;91.40;;;;;;5082578;28;20082;-35
2023/05/13 09:54:17;;;;;;;2.97;2.47;;;20.20;91.10;;;;;;5081979;28;20052;-35
2023/05/13 09:56:43;;;;;;;4.10;2.60;;;20.30;91.00;;;;;;5082514;28;20028;-34
2023/05/13 09:59:11;;;;;;;3.25;2.22;;;20.30;91.20;;;;;;5082282;28;20020;-38
2023/05/13 10:01:39;;;;;;;3.55;2.45;;;20.40;90.80;;;;;;5081846;28;20471;-34
2023/05/13 10:04:07;;;;;;;3.13;2.38;;;20.40;90.80;;;;;;5081591;28;20039;-36
2023/05/13 10:06:43;;;;;;;3.03;2.65;;;20.40;90.90;;;;;;5082191;28;20054;-34
2023/05/13 10:09:10;;;;;;;3.33;2.40;;;20.50;90.90;;;;;;5082013;28;20035;-34
2023/05/13 10:11:36;;;;;;;3.63;2.55;;;20.50;90.70;;;;;;5081463;28;20032;-36
2023/05/13 10:14:04;;;;;;;2.42;2.22;;;20.60;90.70;;;;;;5081018;28;20495;-35
2023/05/13 10:16:31;;;;;;;2.97;2.40;;;20.60;90.60;;;;;;5081844;28;20032;-36
2023/05/13 10:18:58;;;;;;;2.83;2.30;;;20.60;90.60;;;;;;5081147;28;20020;-36
2023/05/13 10:21:27;;;;;;;4.60;2.70;;;20.70;90.50;;;;;;5080448;28;20390;-34
2023/05/13 10:23:54;;;;;;;4.43;2.65;;;20.70;88.90;;;;;;5081766;28;20038;-36
2023/05/13 10:26:21;;;;;;;5.07;2.83;;;20.80;89.60;;;;;;5080909;28;20050;-35
2023/05/13 10:28:47;;;;;;;3.70;2.40;;;20.80;88.20;;;;;;5081166;28;20089;-35
2023/05/13 10:31:13;;;;;;;4.70;2.65;;;20.80;87.00;;;;;;5082307;28;20027;-34
2023/05/13 10:33:40;;;;;;;3.53;2.40;;;20.90;87.10;;;;;;5080906;28;20027;-35
2023/05/13 10:36:11;;;;;;;4.00;2.58;;;20.90;87.60;;;;;;5082311;28;20062;-35
2023/05/13 10:38:54;;;;;;;2.97;2.67;;;20.90;87.40;;;;;;5081185;28;20043;-35
2023/05/13 10:41:50;;;;;;;4.35;2.70;;;20.90;87.00;;;;;;5080330;28;20026;-35
2023/05/13 10:44:18;;;;;;;2.90;2.70;;;20.90;87.00;;;;;;5082457;28;20103;-35
2023/05/13 10:46:47;;;;;;;3.10;2.80;;;21.00;87.10;;;;;;5080636;28;20227;-35
2023/05/13 10:49:15;;;;;;;3.05;2.70;;;20.90;86.40;;;;;;5081114;28;20540;-35
2023/05/13 10:51:48;;;;;;;2.63;2.30;;;21.00;86.30;;;;;;5078181;28;20028;-35
2023/05/13 10:54:21;;;;;;;3.08;2.53;;;21.00;86.90;;;;;;5080623;28;20052;-35
2023/05/13 10:57:00;;;;;;;2.88;2.60;;;21.10;86.40;;;;;;5081219;28;20074;-36
2023/05/13 10:59:29;;;;;;;2.42;2.22;;;21.20;86.80;;;;;;5081454;28;20508;-35
2023/05/13 11:01:55;;;;;;;3.40;2.70;;;21.20;86.50;;;;;;5080617;28;20024;-35
2023/05/13 11:04:21;;;;;;;3.15;2.85;;;21.30;85.50;;;;;;5081014;28;20081;-34
2023/05/13 11:06:48;;;;;;;3.28;2.70;;;21.30;83.90;;;;;;5081427;28;20047;-35
2023/05/13 11:09:28;;;;;;;4.47;2.85;;;21.30;83.70;;;;;;5081793;28;20028;-35
2023/05/13 11:11:57;;;;;;;3.38;2.42;;;21.30;82.80;;;;;;5081954;28;20073;-35
2023/05/13 11:14:24;;;;;;;4.25;2.67;;;21.30;82.20;;;;;;5080623;28;20043;-34
2023/05/13 11:17:03;;;;;;;3.22;2.58;;;21.30;81.90;;;;;;5081669;28;20039;-34
2023/05/13 11:19:34;;;;;;;3.92;2.80;;;21.40;82.00;;;;;;5061437;28;20032;-35
2023/05/13 11:22:21;;;;;;;3.08;2.30;;;21.40;81.20;;;;;;5076929;28;20742;-35
2023/05/13 11:25:07;;;;;;;4.55;2.78;;;21.50;81.10;;;;;;5065541;28;20016;-36
2023/05/13 11:27:41;;;;;;;2.72;2.40;;;21.50;81.20;;;;;;5079744;28;20765;-36
2023/05/13 11:30:20;;;;;;;2.55;2.35;;;21.50;80.90;;;;;;5080296;28;20702;-34
2023/05/13 11:33:00;;;;;;;2.63;2.40;;;21.60;80.30;;;;;;5080138;28;20031;-36
2023/05/13 11:35:25;;;;;;;2.65;2.45;;;21.70;80.30;;;;;;5080139;28;20020;-36
2023/05/13 11:37:52;;;;;;;2.85;2.40;;;21.70;80.60;;;;;;5080293;28;20050;-36
2023/05/13 11:40:21;;;;;;;3.30;2.67;;;21.70;80.40;;;;;;5081071;28;20024;-36
2023/05/13 11:42:50;;;;;;;5.10;2.70;;;21.90;78.90;;;;;;5080420;28;20032;-36
2023/05/13 11:45:17;;;;;;;5.18;2.63;;;21.90;77.70;;;;;;5081566;28;20757;-35
2023/05/13 11:47:43;;;;;;;2.60;2.35;;;22.00;77.00;;;;;;5081845;28;20447;-36
2023/05/13 11:50:28;;;;;;;4.22;2.65;;;22.00;76.10;;;;;;5080724;28;20028;-36
2023/05/13 11:52:56;;;;;;;2.92;2.60;;;22.10;75.20;;;;;;5081226;28;20131;-35
2023/05/13 11:55:39;;;;;;;3.47;2.80;;;22.10;75.60;;;;;;5080557;28;20028;-35
2023/05/13 11:58:04;;;;;;;3.17;2.88;;;22.20;75.80;;;;;;5080271;28;20046;-36
2023/05/13 12:00:34;;;;;;;3.00;2.60;;;22.20;75.20;;;;;;5080715;28;20024;-35
2023/05/13 12:03:01;;;;;;;2.65;2.30;;;22.20;74.90;;;;;;5085224;28;20027;-34
2023/05/13 12:05:27;;;;;;;3.05;2.45;;;22.30;74.60;;;;;;5083612;28;20069;-34
2023/05/13 12:07:57;;;;;;;4.18;2.70;;;22.30;74.80;;;;;;5084757;28;20028;-35
2023/05/13 12:10:23;;;;;;;3.22;2.30;;;22.30;74.00;;;;;;5083431;28;20369;-36
2023/05/13 12:12:52;;;;;;;3.80;2.70;;;22.30;74.20;;;;;;5085040;28;20050;-36
2023/05/13 12:15:20;;;;;;;3.42;2.40;;;22.20;74.10;;;;;;5085063;28;20058;-36
2023/05/13 12:17:46;;;;;;;4.43;2.78;;;22.30;74.50;;;;;;5084574;28;20032;-35
2023/05/13 12:20:17;;;;;;;3.72;2.30;;;22.30;73.60;;;;;;5084528;28;20079;-35
2023/05/13 12:22:42;;;;;;;2.50;2.30;;;22.40;73.80;;;;;;5084463;28;20028;-34
2023/05/13 12:25:46;;;;;;;5.32;2.88;;;22.40;73.70;;;;;;5084281;28;20020;-35
2023/05/13 12:28:17;;;;;;;3.53;2.60;;;22.50;73.90;;;;;;5084567;28;20028;-35
2023/05/13 12:30:57;;;;;;;4.10;2.80;;;22.60;73.50;;;;;;5083591;28;20028;-35
2023/05/13 12:33:28;;;;;;;4.60;2.40;;;22.70;71.40;;;;;;5083238;28;20043;-34
2023/05/13 12:36:18;;;;;;;2.88;2.55;;;22.70;70.40;;;;;;5083374;28;20031;-35
2023/05/13 12:39:06;;;;;;;3.38;2.63;;;22.90;70.20;;;;;;5067648;28;20507;-36
2023/05/13 12:41:33;;;;;;;2.70;2.22;;;22.90;70.30;;;;;;5082888;28;20071;-35
2023/05/13 12:44:01;;;;;;;4.38;2.65;;;22.90;70.50;;;;;;5083644;28;20434;-35
2023/05/13 12:46:27;;;;;;;3.72;2.50;;;22.90;70.30;;;;;;5082401;28;20107;-34
2023/05/13 12:48:55;;;;;;;2.60;2.40;;;22.80;70.00;;;;;;5083718;28;20501;-36
2023/05/13 12:51:20;;;;;;;4.32;2.33;;;22.80;70.00;;;;;;5084208;28;20039;-35